Time;durP1;ratioP1;P1;durP2;ratioP2;P2;SDS_P1;SDS_P2;PMS_P1;PMS_P2;Temp;Humidity;BMP_temperature;BMP_pressure;BME280_temperature;BME280_humidity;BME280_pressure;Samples;Min_cycle;Max_cycle;Signal;HPM_P1;HPM_P2
2024/03/01 00:08:05;;;;;;;10.57;1.83;;;3.60;99.90;;;;;;20879693;28;20075;-40
2024/03/01 00:18:07;;;;;;;8.18;1.90;;;3.90;99.90;;;;;;20878800;28;20063;-41
2024/03/01 00:28:08;;;;;;;8.90;2.38;;;3.70;99.90;;;;;;20877365;28;21740;-43
2024/03/01 00:38:10;;;;;;;13.52;2.35;;;3.80;99.90;;;;;;20852562;28;20560;-42
2024/03/01 00:48:13;;;;;;;6.68;1.85;;;3.70;99.90;;;;;;20872743;28;20241;-40
2024/03/01 00:58:16;;;;;;;6.10;2.38;;;3.90;99.90;;;;;;20876020;28;20126;-40
2024/03/01 01:08:18;;;;;;;11.25;3.00;;;3.90;99.90;;;;;;20874458;28;21188;-42
2024/03/01 01:18:20;;;;;;;11.60;2.78;;;4.10;99.90;;;;;;20853681;28;20150;-43
2024/03/01 01:28:22;;;;;;;11.73;2.60;;;4.40;99.90;;;;;;20873485;28;20095;-42
2024/03/01 01:38:24;;;;;;;9.77;3.10;;;4.20;99.90;;;;;;20871845;28;20963;-41
2024/03/01 01:48:26;;;;;;;14.73;2.70;;;4.10;99.90;;;;;;20871759;28;20785;-41
2024/03/01 01:58:33;;;;;;;11.27;2.83;;;4.10;99.90;;;;;;20867215;28;20093;-41
2024/03/01 02:08:39;;;;;;;12.55;2.60;;;4.10;99.90;;;;;;20868639;28;21072;-42
2024/03/01 02:18:47;;;;;;;8.60;2.92;;;3.80;99.90;;;;;;20869851;28;20155;-41
2024/03/01 02:28:51;;;;;;;5.18;2.38;;;3.70;99.90;;;;;;20865432;28;20556;-41
2024/03/01 02:38:53;;;;;;;6.60;1.63;;;4.00;99.90;;;;;;20868046;28;20071;-41
2024/03/01 02:48:55;;;;;;;5.15;1.85;;;4.00;99.90;;;;;;20866849;28;20797;-40
2024/03/01 02:59:03;;;;;;;5.57;0.68;;;4.00;99.90;;;;;;20679544;28;20687;-40
2024/03/01 03:09:09;;;;;;;3.35;0.77;;;3.70;99.90;;;;;;20489668;28;21224;-40
2024/03/01 03:19:14;;;;;;;2.08;0.63;;;3.30;99.90;;;;;;20509418;28;20260;-42
2024/03/01 03:29:16;;;;;;;2.58;0.70;;;3.20;99.90;;;;;;20555704;28;20139;-40
2024/03/01 03:39:17;;;;;;;1.75;0.60;;;3.40;99.90;;;;;;20828051;28;20130;-40
2024/03/01 03:49:19;;;;;;;2.28;0.75;;;3.40;99.90;;;;;;20876696;28;20177;-42
2024/03/01 03:59:21;;;;;;;2.55;0.80;;;3.40;99.90;;;;;;20876598;28;20169;-41
2024/03/01 04:09:26;;;;;;;3.38;1.60;;;3.10;99.90;;;;;;20876202;28;20241;-40
2024/03/01 04:19:29;;;;;;;6.55;1.55;;;3.00;99.90;;;;;;20872632;28;20166;-40
2024/03/01 04:29:31;;;;;;;5.22;1.30;;;3.00;99.90;;;;;;20875340;28;20283;-40
2024/03/01 04:39:32;;;;;;;2.42;1.30;;;3.00;99.90;;;;;;20854721;28;20564;-40
2024/03/01 04:49:43;;;;;;;0.93;0.70;;;3.00;99.90;;;;;;20870559;28;20189;-40
2024/03/01 04:59:45;;;;;;;1.38;0.80;;;3.40;99.90;;;;;;20853930;28;20240;-42
2024/03/01 05:09:46;;;;;;;2.83;1.00;;;3.60;99.90;;;;;;20873350;28;20174;-40
2024/03/01 05:19:48;;;;;;;2.80;0.70;;;3.60;99.90;;;;;;20854882;28;20123;-40
2024/03/01 05:29:50;;;;;;;1.98;1.00;;;3.50;99.90;;;;;;20850635;28;20134;-40
2024/03/01 05:39:52;;;;;;;1.90;0.80;;;3.60;99.90;;;;;;20870922;28;20178;-40
2024/03/01 05:50:00;;;;;;;2.75;1.00;;;3.70;99.90;;;;;;20868434;28;20779;-40
2024/03/01 06:00:25;;;;;;;2.97;0.82;;;3.90;99.90;;;;;;20868353;28;20063;-40
2024/03/01 06:10:27;;;;;;;1.38;0.68;;;3.70;99.90;;;;;;20867768;28;21001;-43
2024/03/01 06:20:30;;;;;;;2.85;0.93;;;3.70;99.90;;;;;;20869622;28;20237;-40
2024/03/01 06:30:32;;;;;;;0.80;0.50;;;3.80;99.90;;;;;;20869500;28;21192;-43
2024/03/01 06:40:35;;;;;;;1.83;0.80;;;3.80;99.90;;;;;;20864983;28;20177;-40
2024/03/01 06:50:37;;;;;;;1.90;0.80;;;3.80;99.90;;;;;;20867627;28;20304;-44
2024/03/01 07:00:44;;;;;;;4.72;0.98;;;3.80;99.90;;;;;;20868756;28;20751;-40
2024/03/01 07:10:46;;;;;;;2.97;0.70;;;4.00;99.90;;;;;;20856895;28;20722;-40
2024/03/01 07:20:48;;;;;;;3.00;1.13;;;4.00;99.90;;;;;;20878150;28;20228;-41
2024/03/01 07:30:50;;;;;;;5.30;1.20;;;4.00;99.90;;;;;;20878023;28;20162;-41
2024/03/01 07:40:52;;;;;;;4.38;1.00;;;4.30;99.90;;;;;;20878718;28;20186;-40
2024/03/01 07:50:54;;;;;;;3.33;1.10;;;4.10;99.90;;;;;;20877573;28;20067;-40
2024/03/01 08:01:05;;;;;;;3.85;1.30;;;4.10;99.90;;;;;;20871690;28;21033;-40
2024/03/01 08:11:21;;;;;;;2.80;0.88;;;4.10;99.90;;;;;;20875269;28;20064;-41
2024/03/01 08:21:23;;;;;;;3.72;0.80;;;4.30;99.90;;;;;;20873619;28;20124;-41
2024/03/01 08:31:29;;;;;;;2.75;0.90;;;4.20;99.90;;;;;;20854548;28;20120;-40
2024/03/01 08:41:31;;;;;;;3.53;0.88;;;4.40;99.90;;;;;;20853517;28;20170;-42
2024/03/01 08:51:35;;;;;;;7.90;1.10;;;4.50;99.90;;;;;;20852750;28;20118;-41
2024/03/01 09:01:47;;;;;;;2.25;0.68;;;4.60;99.90;;;;;;20870371;28;20488;-40
2024/03/01 09:11:52;;;;;;;8.27;4.18;;;4.80;99.90;;;;;;20848484;28;20071;-43
2024/03/01 09:21:54;;;;;;;4.78;2.72;;;4.90;99.90;;;;;;20867557;28;20086;-42
2024/03/01 09:31:59;;;;;;;11.23;8.60;;;4.80;99.90;;;;;;20871716;28;20561;-40
2024/03/01 09:42:19;;;;;;;4.82;1.92;;;4.80;99.90;;;;;;20865125;28;20646;-40
2024/03/01 09:52:51;;;;;;;3.87;1.40;;;4.90;99.90;;;;;;20864691;28;20187;-41
2024/03/01 10:03:11;;;;;;;2.67;0.50;;;5.20;99.90;;;;;;20850196;28;20126;-40
2024/03/01 10:13:18;;;;;;;4.40;0.70;;;5.30;99.90;;;;;;20865012;28;20750;-42
2024/03/01 10:24:02;;;;;;;5.07;0.47;;;5.30;99.90;;;;;;20850083;28;20131;-41
2024/03/01 10:34:14;;;;;;;1.30;0.40;;;5.40;99.90;;;;;;20604013;28;20139;-40
2024/03/01 10:44:45;;;;;;;1.25;0.40;;;5.30;99.90;;;;;;20624170;28;21182;-42
2024/03/01 10:54:54;;;;;;;3.80;0.68;;;5.40;99.90;;;;;;20589208;28;20347;-41
2024/03/01 11:05:17;;;;;;;2.60;0.50;;;5.50;99.90;;;;;;20719243;28;20170;-40
2024/03/01 11:15:23;;;;;;;3.03;0.80;;;5.40;99.90;;;;;;20880019;28;20513;-42
2024/03/01 11:25:51;;;;;;;1.50;0.63;;;5.30;99.90;;;;;;20866745;28;20862;-41
2024/03/01 11:36:44;;;;;;;5.13;3.33;;;5.20;99.90;;;;;;20876082;28;20162;-42
2024/03/01 11:46:45;;;;;;;1.77;0.63;;;5.00;99.90;;;;;;20874444;28;20127;-41
2024/03/01 11:56:59;;;;;;;3.05;1.80;;;4.80;99.90;;;;;;20878497;28;20438;-42
2024/03/01 12:07:30;;;;;;;0.50;0.30;;;4.90;99.90;;;;;;20873401;28;20067;-41
2024/03/01 12:17:51;;;;;;;1.55;0.40;;;5.00;99.90;;;;;;20877906;28;20126;-41
2024/03/01 12:28:11;;;;;;;2.40;0.22;;;5.20;99.90;;;;;;20877069;28;20173;-41
2024/03/01 12:38:30;;;;;;;1.98;0.38;;;5.50;99.90;;;;;;20874941;28;21678;-43
2024/03/01 12:48:39;;;;;;;0.55;0.10;;;6.10;99.90;;;;;;20876952;28;20174;-42
2024/03/01 12:59:00;;;;;;;1.38;0.20;;;6.00;99.90;;;;;;20854271;28;20710;-41
2024/03/01 13:09:14;;;;;;;1.40;0.40;;;5.60;99.90;;;;;;20872905;28;20654;-41
2024/03/01 13:19:29;;;;;;;1.38;0.20;;;5.50;99.90;;;;;;20870708;28;20252;-42
2024/03/01 13:29:33;;;;;;;0.70;0.65;;;5.30;99.90;;;;;;20606028;28;20102;-40
2024/03/01 13:39:52;;;;;;;0.65;0.30;;;5.20;99.90;;;;;;20588595;28;20139;-40
2024/03/01 13:50:07;;;;;;;0.50;0.40;;;5.20;99.90;;;;;;20590808;28;20179;-41
2024/03/01 14:00:25;;;;;;;0.28;0.20;;;5.50;99.90;;;;;;20811018;28;20079;-41
2024/03/01 14:10:27;;;;;;;1.17;0.20;;;5.50;99.90;;;;;;20850375;28;20503;-41
2024/03/01 14:20:30;;;;;;;0.43;0.20;;;5.00;99.90;;;;;;20845622;28;20185;-43
2024/03/01 14:30:32;;;;;;;1.08;0.50;;;4.80;99.90;;;;;;20848653;28;21103;-41
2024/03/01 14:40:37;;;;;;;0.82;0.10;;;4.70;99.90;;;;;;20862759;28;20174;-41
2024/03/01 14:50:46;;;;;;;0.95;0.35;;;4.70;99.90;;;;;;20866486;28;20067;-42
2024/03/01 15:00:51;;;;;;;0.45;0.10;;;4.70;99.90;;;;;;20867907;28;20113;-42
2024/03/01 15:11:04;;;;;;;0.90;0.20;;;4.60;99.90;;;;;;20864945;28;20519;-41
2024/03/01 15:21:11;;;;;;;0.40;0.10;;;4.50;99.90;;;;;;20870336;28;21177;-40
2024/03/01 15:31:13;;;;;;;0.10;0.10;;;4.40;99.90;;;;;;20880858;28;20252;-40
2024/03/01 15:41:18;;;;;;;0.28;0.20;;;4.30;99.90;;;;;;20882708;28;21025;-42
2024/03/01 15:51:21;;;;;;;0.30;0.25;;;4.30;99.90;;;;;;20879147;28;20134;-41
2024/03/01 16:01:26;;;;;;;1.70;0.70;;;4.10;99.90;;;;;;20880591;28;20196;-41
2024/03/01 16:11:28;;;;;;;1.55;0.90;;;3.80;99.90;;;;;;20875275;28;20130;-42
2024/03/01 16:21:30;;;;;;;0.75;0.60;;;3.70;99.90;;;;;;20872870;28;20134;-41
2024/03/01 16:31:32;;;;;;;0.93;0.70;;;3.50;99.90;;;;;;20873089;28;20177;-41
2024/03/01 16:41:38;;;;;;;1.10;0.90;;;3.50;99.90;;;;;;20873231;28;20185;-40
2024/03/01 16:51:43;;;;;;;0.10;0.10;;;3.50;99.90;;;;;;20859030;28;20588;-41
2024/03/01 17:01:48;;;;;;;0.60;0.20;;;3.30;99.90;;;;;;20872888;28;20874;-40
2024/03/01 17:11:53;;;;;;;0.45;0.20;;;3.00;99.90;;;;;;20874462;28;20151;-41
2024/03/01 17:22:00;;;;;;;0.40;0.30;;;3.10;99.90;;;;;;20871873;28;20186;-43
2024/03/01 17:32:02;;;;;;;5.90;1.00;;;3.10;99.90;;;;;;20856761;28;20911;-41
2024/03/01 17:42:04;;;;;;;0.80;0.40;;;3.10;99.90;;;;;;20855212;28;20994;-41
2024/03/01 17:52:06;;;;;;;1.50;0.55;;;3.20;99.90;;;;;;20850237;28;20079;-41
2024/03/01 18:02:08;;;;;;;0.47;0.30;;;3.20;99.90;;;;;;20870823;28;20155;-44
2024/03/01 18:12:13;;;;;;;0.65;0.50;;;3.20;99.90;;;;;;20869934;28;20181;-40
2024/03/01 18:22:21;;;;;;;0.28;0.20;;;3.20;99.90;;;;;;20871294;28;20124;-40
2024/03/01 18:32:22;;;;;;;0.17;0.10;;;3.40;99.90;;;;;;20874268;28;20112;-41
2024/03/01 18:42:24;;;;;;;0.57;0.13;;;3.40;99.90;;;;;;20871332;28;20078;-42
2024/03/01 18:52:28;;;;;;;0.98;0.30;;;3.20;99.90;;;;;;20868185;28;20776;-42
2024/03/01 19:02:30;;;;;;;1.55;1.20;;;3.00;99.90;;;;;;20886837;28;20067;-40
2024/03/01 19:12:32;;;;;;;2.15;1.60;;;2.80;99.90;;;;;;20883209;28;21370;-41
2024/03/01 19:22:38;;;;;;;1.75;0.80;;;2.80;99.90;;;;;;20883052;28;20121;-41
2024/03/01 19:32:41;;;;;;;0.28;0.20;;;2.80;99.90;;;;;;20886979;28;20067;-41
2024/03/01 19:42:45;;;;;;;0.30;0.20;;;2.70;99.90;;;;;;20857713;28;20155;-42
2024/03/01 19:52:48;;;;;;;0.40;0.30;;;2.90;99.90;;;;;;20880587;28;20067;-40
2024/03/01 20:02:51;;;;;;;0.70;0.20;;;2.60;99.90;;;;;;20880605;28;20317;-40
2024/03/01 20:12:54;;;;;;;1.50;0.40;;;2.50;99.90;;;;;;20858366;28;20543;-40
2024/03/01 20:22:56;;;;;;;0.70;0.20;;;2.40;99.90;;;;;;20878559;28;20148;-41
2024/03/01 20:32:59;;;;;;;2.35;0.30;;;2.30;99.90;;;;;;20876690;28;20174;-42
2024/03/01 20:43:01;;;;;;;3.78;0.60;;;2.50;99.90;;;;;;20875642;28;20481;-42
2024/03/01 20:53:05;;;;;;;1.48;0.25;;;2.60;99.90;;;;;;20878091;28;20916;-40
2024/03/01 21:03:07;;;;;;;3.00;0.43;;;2.70;99.90;;;;;;20857606;28;20253;-41
2024/03/01 21:13:11;;;;;;;1.15;0.30;;;2.70;99.90;;;;;;20693378;28;21464;-41
2024/03/01 21:23:13;;;;;;;1.55;0.30;;;2.70;99.90;;;;;;20694882;28;20977;-40
2024/03/01 21:33:15;;;;;;;1.27;0.50;;;2.60;99.90;;;;;;20694349;28;20233;-41
2024/03/01 21:43:19;;;;;;;1.77;0.70;;;2.60;99.90;;;;;;20702218;28;20064;-40
2024/03/01 21:53:22;;;;;;;4.07;1.10;;;2.60;99.90;;;;;;20785364;28;20180;-40
2024/03/01 22:03:26;;;;;;;3.47;1.33;;;2.60;99.90;;;;;;20788888;28;20119;-41
2024/03/01 22:13:29;;;;;;;2.25;1.48;;;2.50;99.90;;;;;;20787867;28;20090;-40
2024/03/01 22:23:31;;;;;;;3.88;1.50;;;2.40;99.90;;;;;;20784279;28;20230;-41
2024/03/01 22:33:33;;;;;;;4.63;1.95;;;2.40;99.90;;;;;;20782889;28;20166;-40
2024/03/01 22:43:35;;;;;;;8.13;3.42;;;2.70;99.90;;;;;;20833328;28;20580;-42
2024/03/01 22:53:38;;;;;;;3.35;0.60;;;2.70;99.90;;;;;;20864141;28;20126;-42
2024/03/01 23:03:41;;;;;;;16.45;10.25;;;2.80;99.90;;;;;;20850507;28;20062;-47
2024/03/01 23:13:42;;;;;;;4.20;2.20;;;2.70;99.90;;;;;;20848286;28;20212;-41
2024/03/01 23:23:44;;;;;;;17.30;12.25;;;2.70;99.90;;;;;;20865183;28;20185;-40
2024/03/01 23:33:49;;;;;;;4.90;2.75;;;2.80;99.90;;;;;;20862776;28;20153;-41
2024/03/01 23:43:51;;;;;;;5.22;2.35;;;2.80;99.90;;;;;;20871932;28;20170;-41
2024/03/01 23:53:53;;;;;;;5.70;1.48;;;2.70;99.90;;;;;;20845090;28;21280;-41
